Time;durP1;ratioP1;P1;durP2;ratioP2;P2;SDS_P1;SDS_P2;PMS_P1;PMS_P2;Temp;Humidity;BMP_temperature;BMP_pressure;BME280_temperature;BME280_humidity;BME280_pressure;Samples;Min_cycle;Max_cycle;Signal;HPM_P1;HPM_P2
2021/08/16 00:00:18;;;;;;;17.73;13.60;;;;;;;17.94;85.71;100436.85;1791383;78;21088;-70
2021/08/16 00:02:45;;;;;;;20.23;12.93;;;;;;;17.95;85.80;100437.09;1788799;78;20920;-71
2021/08/16 00:05:14;;;;;;;18.20;12.97;;;;;;;17.96;85.86;100440.82;1781832;78;21325;-71
2021/08/16 00:07:42;;;;;;;16.93;12.73;;;;;;;17.94;86.03;100443.61;1783702;78;21006;-70
2021/08/16 00:10:11;;;;;;;17.73;12.93;;;;;;;17.95;86.20;100441.94;1795364;78;21101;-71
2021/08/16 00:12:38;;;;;;;17.60;12.77;;;;;;;17.95;86.39;100442.49;1789177;78;21026;-71
2021/08/16 00:15:07;;;;;;;19.50;12.87;;;;;;;17.95;86.51;100440.59;1777189;79;21019;-71
2021/08/16 00:17:34;;;;;;;18.43;12.87;;;;;;;17.96;86.66;100438.67;1781582;78;21078;-71
2021/08/16 00:20:01;;;;;;;15.00;11.80;;;;;;;17.95;86.87;100437.88;1800420;78;21498;-71
2021/08/16 00:22:27;;;;;;;15.93;12.00;;;;;;;17.97;87.00;100435.68;1764718;79;21069;-71
2021/08/16 00:24:54;;;;;;;17.47;12.97;;;;;;;17.96;87.21;100434.06;1781713;78;20960;-70
2021/08/16 00:27:23;;;;;;;18.73;12.83;;;;;;;17.98;87.22;100439.17;1785224;78;21023;-71
2021/08/16 00:29:51;;;;;;;15.77;12.50;;;;;;;17.96;87.16;100431.36;1789209;78;20986;-71
2021/08/16 00:32:19;;;;;;;16.40;12.57;;;;;;;17.95;87.09;100429.78;1780581;78;21036;-71
2021/08/16 00:34:47;;;;;;;15.47;12.70;;;;;;;17.92;87.15;100433.66;1735236;81;21461;-71
2021/08/16 00:37:16;;;;;;;17.07;13.37;;;;;;;17.87;87.10;100423.78;1794551;78;20980;-71
2021/08/16 00:39:42;;;;;;;16.07;13.07;;;;;;;17.87;86.95;100429.19;1788483;78;21066;-73
2021/08/16 00:42:12;;;;;;;17.23;13.30;;;;;;;17.87;86.88;100433.24;1792860;78;21120;-71
2021/08/16 00:44:39;;;;;;;17.00;13.50;;;;;;;17.86;86.57;100426.78;1799975;78;21141;-72
2021/08/16 00:47:06;;;;;;;16.77;13.00;;;;;;;17.84;86.38;100421.70;1779777;78;21542;-71
2021/08/16 00:49:34;;;;;;;17.13;12.70;;;;;;;17.83;86.23;100420.08;1787920;78;21570;-72
2021/08/16 00:52:03;;;;;;;18.13;13.93;;;;;;;17.81;86.14;100423.11;1787855;78;21573;-71
2021/08/16 00:54:31;;;;;;;18.87;13.33;;;;;;;17.81;86.03;100422.31;1778248;78;21095;-72
2021/08/16 00:57:01;;;;;;;22.00;14.07;;;;;;;17.80;86.03;100427.45;1790447;78;20992;-73
2021/08/16 00:59:27;;;;;;;22.53;13.90;;;;;;;17.80;86.19;100422.05;1733666;81;21011;-72
2021/08/16 01:01:56;;;;;;;22.13;14.30;;;;;;;17.77;86.43;100422.13;1722125;81;21559;-73
2021/08/16 01:04:30;;;;;;;22.00;13.97;;;;;;;17.74;86.51;100420.02;1728286;82;21126;-73
2021/08/16 01:06:57;;;;;;;18.47;13.27;;;;;;;17.71;86.56;100426.03;1713810;82;21129;-72
2021/08/16 01:09:25;;;;;;;22.80;13.50;;;;;;;17.69;86.64;100428.78;1736882;80;21094;-72
2021/08/16 01:11:52;;;;;;;20.17;13.77;;;;;;;17.63;86.67;100424.05;1789962;78;21172;-72
2021/08/16 01:14:18;;;;;;;20.43;14.10;;;;;;;17.58;86.68;100418.23;1789618;79;20980;-72
2021/08/16 01:16:47;;;;;;;23.23;14.17;;;;;;;17.56;86.69;100423.13;1796916;78;21561;-72
2021/08/16 01:19:22;;;;;;;20.57;14.80;;;;;;;17.55;86.67;100422.10;1773536;78;20993;-72
2021/08/16 01:21:49;;;;;;;21.93;13.50;;;;;;;17.52;86.68;100422.16;1790095;78;21087;-72
2021/08/16 01:24:17;;;;;;;22.17;14.37;;;;;;;17.50;86.67;100418.16;1791032;78;21574;-73
2021/08/16 01:26:44;;;;;;;22.70;13.57;;;;;;;17.48;86.68;100422.53;1781849;78;21558;-73
2021/08/16 01:29:17;;;;;;;19.17;14.27;;;;;;;17.45;86.86;100416.95;1784271;78;21101;-73
2021/08/16 01:31:44;;;;;;;20.43;14.23;;;;;;;17.43;86.81;100417.23;1716186;81;21880;-73
2021/08/16 01:34:11;;;;;;;19.17;14.40;;;;;;;17.42;86.79;100417.00;1726855;81;21518;-73
2021/08/16 01:36:37;;;;;;;19.13;14.20;;;;;;;17.40;87.07;100419.75;1734925;81;21423;-73
2021/08/16 01:39:04;;;;;;;21.33;14.03;;;;;;;17.38;86.85;100425.47;1741083;80;21164;-73
2021/08/16 01:41:31;;;;;;;18.37;14.10;;;;;;;17.35;86.93;100417.98;1747304;80;21054;-73
2021/08/16 01:43:57;;;;;;;21.77;14.60;;;;;;;17.36;86.98;100419.56;1741294;81;21501;-73
2021/08/16 01:46:25;;;;;;;23.57;15.00;;;;;;;17.35;87.03;100420.13;1777221;78;20924;-72
2021/08/16 01:48:53;;;;;;;20.43;14.63;;;;;;;17.34;87.15;100413.66;1770858;81;21471;-73
2021/08/16 01:51:20;;;;;;;24.03;14.67;;;;;;;17.29;87.10;100414.59;1787574;78;20944;-73
2021/08/16 01:53:48;;;;;;;21.63;14.80;;;;;;;17.24;87.38;100414.72;1767974;80;21003;-73
2021/08/16 01:56:16;;;;;;;20.80;14.97;;;;;;;17.24;87.51;100414.72;1782359;78;22150;-72
2021/08/16 01:58:43;;;;;;;21.37;14.70;;;;;;;17.21;87.49;100418.03;1746723;79;20993;-73
2021/08/16 02:01:09;;;;;;;19.07;13.87;;;;;;;17.22;87.46;100417.48;1788434;78;21067;-73
2021/08/16 02:03:36;;;;;;;22.20;14.87;;;;;;;17.20;87.43;100417.77;1794440;79;20881;-73
2021/08/16 02:06:03;;;;;;;19.57;14.33;;;;;;;17.17;87.43;100415.67;1800942;78;21546;-72
2021/08/16 02:08:29;;;;;;;19.60;14.93;;;;;;;17.16;87.43;100415.44;1802503;78;21496;-72
2021/08/16 02:10:58;;;;;;;21.70;14.37;;;;;;;17.15;87.44;100413.05;1731903;81;21004;-72
2021/08/16 02:13:24;;;;;;;19.70;14.70;;;;;;;17.14;87.54;100412.23;1753541;80;21474;-72
2021/08/16 02:15:51;;;;;;;22.47;15.13;;;;;;;17.14;87.78;100416.28;1760792;81;21095;-73
2021/08/16 02:18:19;;;;;;;19.07;14.03;;;;;;;17.14;87.84;100410.88;1730937;80;20996;-72
2021/08/16 02:20:47;;;;;;;19.47;15.03;;;;;;;17.15;87.87;100409.00;1732351;81;21118;-72
2021/08/16 02:23:14;;;;;;;21.93;14.43;;;;;;;17.12;87.91;100406.36;1790694;78;21991;-73
2021/08/16 02:25:41;;;;;;;18.40;14.37;;;;;;;17.11;88.03;100415.56;1769723;78;21219;-72
2021/08/16 02:28:07;;;;;;;20.33;15.00;;;;;;;17.07;88.12;100415.34;1770544;78;21425;-72
2021/08/16 02:30:34;;;;;;;19.37;14.43;;;;;;;17.06;88.30;100416.45;1781072;78;21051;-72
2021/08/16 02:33:01;;;;;;;18.93;14.43;;;;;;;17.07;88.42;100415.91;1758080;80;21389;-72
2021/08/16 02:35:28;;;;;;;17.13;14.47;;;;;;;17.06;88.44;100417.80;1780741;79;20992;-72
2021/08/16 02:37:54;;;;;;;23.20;14.70;;;;;;;17.05;88.66;100415.42;1783606;78;21557;-72
2021/08/16 02:40:21;;;;;;;20.17;15.43;;;;;;;17.08;88.51;100422.92;1778535;79;21609;-72
2021/08/16 02:42:48;;;;;;;18.63;14.27;;;;;;;17.08;88.53;100423.71;1795376;78;21018;-72
2021/08/16 02:45:14;;;;;;;16.93;14.20;;;;;;;17.08;88.41;100431.80;1797502;78;21469;-72
2021/08/16 02:47:43;;;;;;;17.83;14.40;;;;;;;17.08;88.57;100428.31;1777992;78;21039;-72
2021/08/16 02:50:12;;;;;;;16.90;13.40;;;;;;;17.09;88.63;100431.25;1778453;78;21023;-72
2021/08/16 02:52:40;;;;;;;17.87;13.88;;;;;;;17.09;88.63;100432.05;1791053;79;21069;-72
2021/08/16 02:55:09;;;;;;;17.83;14.33;;;;;;;17.11;88.68;100430.41;1791788;78;21098;-72
2021/08/16 02:57:36;;;;;;;18.77;14.03;;;;;;;17.12;88.76;100430.64;1782063;78;21083;-72
2021/08/16 03:00:06;;;;;;;19.53;14.60;;;;;;;17.13;88.81;100441.68;1785694;79;21031;-72
2021/08/16 03:02:33;;;;;;;17.67;14.40;;;;;;;17.16;88.88;100440.28;1792060;78;21000;-72
2021/08/16 03:05:01;;;;;;;19.57;14.13;;;;;;;17.19;88.89;100447.77;1792741;78;21661;-72
2021/08/16 03:07:27;;;;;;;18.50;14.37;;;;;;;17.20;88.88;100445.31;1788299;78;21137;-72
2021/08/16 03:09:54;;;;;;;16.40;13.03;;;;;;;17.21;88.92;100445.02;1780640;78;22151;-72
2021/08/16 03:12:21;;;;;;;18.63;14.57;;;;;;;17.23;88.86;100447.41;1784923;78;20988;-72
2021/08/16 03:14:48;;;;;;;19.67;14.67;;;;;;;17.22;89.12;100448.52;1794443;78;20996;-71
2021/08/16 03:17:16;;;;;;;18.03;14.57;;;;;;;17.22;89.21;100445.81;1792689;78;21173;-71
2021/08/16 03:19:43;;;;;;;19.87;14.20;;;;;;;17.23;89.20;100445.50;1783800;78;21553;-71
2021/08/16 03:22:10;;;;;;;18.97;14.07;;;;;;;17.25;89.22;100441.95;1805532;78;21134;-72
2021/08/16 03:24:36;;;;;;;17.17;13.20;;;;;;;17.28;89.22;100446.75;1781274;78;20945;-71
2021/08/16 03:27:04;;;;;;;18.60;13.43;;;;;;;17.28;89.22;100448.66;1792814;79;21117;-72
2021/08/16 03:29:30;;;;;;;16.93;14.33;;;;;;;17.28;89.32;100447.30;1771763;79;21195;-71
2021/08/16 03:32:00;;;;;;;17.33;14.17;;;;;;;17.30;89.28;100443.17;1791703;78;21578;-72
2021/08/16 03:34:26;;;;;;;16.37;13.67;;;;;;;17.32;89.32;100441.53;1785177;78;22142;-72
2021/08/16 03:36:53;;;;;;;17.93;14.40;;;;;;;17.36;89.28;100449.27;1784786;78;21057;-71
2021/08/16 03:39:20;;;;;;;17.83;13.63;;;;;;;17.40;89.22;100445.40;1790894;78;21510;-72
2021/08/16 03:41:48;;;;;;;17.73;14.43;;;;;;;17.44;89.18;100447.20;1796855;78;20967;-72
2021/08/16 03:44:14;;;;;;;19.60;13.53;;;;;;;17.49;89.15;100441.67;1769959;79;21122;-72
2021/08/16 03:46:43;;;;;;;17.27;13.50;;;;;;;17.57;89.10;100443.66;1780052;78;21815;-72
2021/08/16 03:49:11;;;;;;;19.77;13.60;;;;;;;17.65;89.04;100434.56;1790985;78;20983;-72
2021/08/16 03:51:38;;;;;;;17.70;13.97;;;;;;;17.74;88.97;100432.73;1794152;78;21004;-72
2021/08/16 03:54:04;;;;;;;15.60;13.20;;;;;;;17.81;88.90;100431.77;1775329;79;21051;-72
2021/08/16 03:56:32;;;;;;;18.40;13.43;;;;;;;17.91;88.82;100438.82;1795520;78;20997;-72
2021/08/16 03:58:58;;;;;;;16.07;13.23;;;;;;;18.00;88.68;100439.12;1774757;78;21117;-71
2021/08/16 04:01:25;;;;;;;17.73;13.40;;;;;;;18.11;88.54;100438.85;1790641;78;20940;-71
2021/08/16 04:03:52;;;;;;;17.50;14.30;;;;;;;18.21;88.38;100439.94;1782101;79;21024;-72
2021/08/16 04:06:19;;;;;;;17.27;12.80;;;;;;;18.30;88.13;100438.08;1790443;78;21019;-72
2021/08/16 04:08:46;;;;;;;15.60;13.00;;;;;;;18.40;87.72;100441.06;1788344;78;21028;-72
2021/08/16 04:11:14;;;;;;;17.70;13.57;;;;;;;18.48;87.18;100442.43;1784695;78;21051;-72
2021/08/16 04:13:40;;;;;;;17.40;13.90;;;;;;;18.58;86.71;100437.85;1791450;78;20982;-71
2021/08/16 04:16:07;;;;;;;18.93;14.10;;;;;;;18.65;86.41;100430.08;1779503;79;21486;-71
2021/08/16 04:18:36;;;;;;;18.60;14.70;;;;;;;18.76;86.09;100435.48;1786030;78;21035;-71
2021/08/16 04:21:05;;;;;;;18.53;14.23;;;;;;;18.87;85.91;100433.27;1796147;79;21519;-71
2021/08/16 04:23:33;;;;;;;17.87;13.50;;;;;;;18.98;85.70;100423.16;1794980;78;21463;-71
2021/08/16 04:26:01;;;;;;;20.77;14.33;;;;;;;19.09;85.43;100429.09;1800701;78;21456;-72
2021/08/16 04:28:28;;;;;;;17.90;13.77;;;;;;;19.22;85.34;100434.13;1787276;78;21040;-71
2021/08/16 04:30:55;;;;;;;19.90;14.47;;;;;;;19.33;85.07;100439.45;1795842;79;21083;-71
2021/08/16 04:33:24;;;;;;;20.33;14.47;;;;;;;19.45;84.95;100443.68;1783273;78;21617;-72
2021/08/16 04:35:53;;;;;;;20.90;14.40;;;;;;;19.60;84.60;100442.95;1800707;78;21586;-72
2021/08/16 04:38:21;;;;;;;19.27;14.07;;;;;;;19.73;84.05;100439.30;1801520;78;21589;-72
2021/08/16 04:40:52;;;;;;;17.53;13.87;;;;;;;19.88;83.14;100440.72;1778132;78;21055;-72
2021/08/16 04:43:20;;;;;;;18.83;14.23;;;;;;;20.02;82.62;100438.59;1788281;78;21114;-72
2021/08/16 04:45:47;;;;;;;15.57;13.13;;;;;;;20.17;82.21;100439.19;1787537;79;21098;-71
2021/08/16 04:48:14;;;;;;;20.03;13.70;;;;;;;20.30;81.98;100436.29;1778377;78;22121;-72
2021/08/16 04:50:40;;;;;;;16.67;13.93;;;;;;;20.37;81.80;100438.50;1787311;78;21094;-71
2021/08/16 04:53:08;;;;;;;17.53;13.73;;;;;;;20.45;81.55;100436.86;1785796;78;20992;-72
2021/08/16 04:55:36;;;;;;;19.30;14.00;;;;;;;20.54;81.64;100431.66;1779634;79;21047;-72
2021/08/16 04:58:03;;;;;;;17.37;13.53;;;;;;;20.64;81.59;100434.56;1789047;78;21173;-72
2021/08/16 05:00:29;;;;;;;18.57;14.60;;;;;;;20.76;81.71;100434.66;1795800;78;22024;-72
2021/08/16 05:02:56;;;;;;;16.77;13.63;;;;;;;20.89;81.61;100425.22;1781248;78;21505;-71
2021/08/16 05:05:28;;;;;;;18.80;13.57;;;;;;;21.03;81.14;100425.78;1783135;78;21044;-71
2021/08/16 05:07:57;;;;;;;18.47;13.73;;;;;;;21.19;80.37;100428.68;1782034;78;20997;-71
2021/08/16 05:10:26;;;;;;;17.83;14.10;;;;;;;21.35;79.69;100423.48;1788361;79;21000;-71
2021/08/16 05:12:57;;;;;;;19.43;13.70;;;;;;;21.49;78.78;100424.02;1786168;78;20920;-72
2021/08/16 05:15:25;;;;;;;16.47;13.50;;;;;;;21.64;77.40;100432.89;1777626;78;20996;-71
2021/08/16 05:17:53;;;;;;;16.07;12.07;;;;;;;21.77;76.28;100431.00;1782236;79;21015;-71
2021/08/16 05:20:22;;;;;;;17.50;12.73;;;;;;;21.93;75.18;100431.17;1794326;79;21078;-71
2021/08/16 05:22:49;;;;;;;16.23;13.37;;;;;;;22.07;73.69;100421.33;1794975;79;21130;-71
2021/08/16 05:25:17;;;;;;;18.23;13.50;;;;;;;22.20;72.25;100421.61;1797192;78;21158;-72
2021/08/16 05:27:44;;;;;;;14.83;12.67;;;;;;;22.32;71.14;100421.62;1779112;78;21039;-71
2021/08/16 05:30:13;;;;;;;16.93;13.30;;;;;;;22.43;70.23;100420.03;1782327;78;21004;-72
2021/08/16 05:32:39;;;;;;;18.23;13.23;;;;;;;22.56;69.58;100416.73;1786813;78;21066;-73
2021/08/16 05:35:07;;;;;;;20.47;13.73;;;;;;;22.66;68.93;100419.57;1782565;78;21642;-71
2021/08/16 05:37:34;;;;;;;17.00;12.53;;;;;;;22.75;68.18;100418.89;1795483;79;21086;-71
2021/08/16 05:40:01;;;;;;;17.87;13.43;;;;;;;22.83;67.62;100426.70;1788863;79;21011;-72
2021/08/16 05:42:27;;;;;;;14.90;12.30;;;;;;;22.88;67.51;100426.48;1786854;78;21071;-73
2021/08/16 05:44:55;;;;;;;18.33;13.10;;;;;;;22.94;66.68;100429.22;1781869;78;21110;-72
2021/08/16 05:47:22;;;;;;;15.97;12.27;;;;;;;23.01;66.38;100432.16;1787127;78;21059;-72
2021/08/16 05:49:49;;;;;;;16.93;12.27;;;;;;;23.06;65.69;100433.84;1791192;78;21117;-72
2021/08/16 05:52:16;;;;;;;17.00;12.97;;;;;;;23.12;65.10;100440.06;1778683;78;21058;-73
2021/08/16 05:54:43;;;;;;;17.53;12.67;;;;;;;23.17;64.67;100444.50;1789765;78;21039;-72
2021/08/16 05:57:10;;;;;;;16.90;12.67;;;;;;;23.15;64.74;100446.77;1793087;78;21075;-72
2021/08/16 05:59:36;;;;;;;15.33;12.00;;;;;;;23.23;64.91;100460.83;1782761;79;20936;-72
2021/08/16 06:02:04;;;;;;;15.83;12.63;;;;;;;23.33;64.97;100460.89;1763489;79;21114;-72
2021/08/16 06:04:30;;;;;;;15.50;12.97;;;;;;;23.40;65.14;100461.13;1787415;78;20988;-72
2021/08/16 06:06:57;;;;;;;17.77;13.13;;;;;;;23.49;64.73;100453.57;1753375;78;21106;-73
2021/08/16 06:09:24;;;;;;;17.00;13.03;;;;;;;23.59;64.36;100451.73;1780626;78;21149;-72
2021/08/16 06:11:52;;;;;;;17.07;12.47;;;;;;;23.65;63.68;100442.14;1781185;79;21031;-71
2021/08/16 06:14:19;;;;;;;16.37;12.33;;;;;;;23.77;63.95;100441.91;1784976;78;22147;-71
2021/08/16 06:16:48;;;;;;;16.23;11.67;;;;;;;23.91;63.93;100435.45;1799593;78;21110;-72
2021/08/16 06:19:16;;;;;;;16.87;12.30;;;;;;;24.06;63.99;100433.91;1784763;78;21086;-71
2021/08/16 06:21:44;;;;;;;16.83;12.00;;;;;;;24.20;63.19;100426.06;1788839;79;20956;-71
2021/08/16 06:24:11;;;;;;;17.17;12.13;;;;;;;24.38;62.47;100417.52;1794986;78;21309;-71
2021/08/16 06:26:39;;;;;;;15.17;12.00;;;;;;;24.54;61.96;100416.95;1790174;78;21982;-71
2021/08/16 06:29:06;;;;;;;21.73;13.03;;;;;;;24.68;61.47;100413.75;1753190;81;20956;-71
2021/08/16 06:31:34;;;;;;;15.97;11.57;;;;;;;24.83;60.98;100415.66;1721356;81;21111;-71
2021/08/16 06:34:01;;;;;;;15.70;11.77;;;;;;;24.96;60.67;100423.95;1731250;80;21097;-71
2021/08/16 06:36:27;;;;;;;15.67;11.73;;;;;;;25.12;60.19;100420.41;1735309;82;21032;-71
2021/08/16 06:38:54;;;;;;;14.43;10.70;;;;;;;25.23;59.82;100425.52;1714432;81;21715;-72
2021/08/16 06:41:21;;;;;;;15.57;10.97;;;;;;;25.35;58.74;100424.59;1729217;82;21059;-72
2021/08/16 06:43:48;;;;;;;13.67;11.03;;;;;;;25.48;57.58;100429.55;1721099;81;21161;-72
2021/08/16 06:46:16;;;;;;;12.90;10.97;;;;;;;25.61;57.37;100434.28;1726232;81;21011;-72
2021/08/16 06:48:44;;;;;;;13.63;10.77;;;;;;;25.66;57.24;100433.19;1721380;81;21086;-77
2021/08/16 06:51:11;;;;;;;14.30;11.17;;;;;;;25.66;57.40;100441.39;1726423;81;21163;-76
2021/08/16 06:53:38;;;;;;;12.47;10.73;;;;;;;25.69;57.21;100442.83;1786892;78;21133;-74
2021/08/16 06:56:05;;;;;;;15.03;11.47;;;;;;;25.79;57.56;100443.39;1786799;78;21039;-75
2021/08/16 06:58:34;;;;;;;13.17;10.53;;;;;;;25.85;57.64;100434.55;1788365;79;21178;-77
2021/08/16 07:01:02;;;;;;;15.10;11.07;;;;;;;25.93;57.39;100436.28;1784130;78;21379;-78
2021/08/16 07:03:29;;;;;;;12.17;10.50;;;;;;;26.04;57.45;100432.94;1792341;78;21431;-81
2021/08/16 07:05:56;;;;;;;14.10;10.17;;;;;;;26.19;57.33;100438.30;1786748;78;21447;-79
2021/08/16 07:08:22;;;;;;;13.43;10.40;;;;;;;26.33;56.07;100438.31;1785819;78;21066;-79
2021/08/16 07:10:51;;;;;;;13.97;10.40;;;;;;;26.49;55.02;100436.81;1788215;78;21106;-80
2021/08/16 07:13:19;;;;;;;14.77;10.00;;;;;;;26.63;54.73;100428.83;1788439;79;21017;-80
2021/08/16 07:15:47;;;;;;;13.77;10.20;;;;;;;26.78;54.29;100431.17;1780125;78;21149;-78
2021/08/16 07:18:13;;;;;;;13.53;9.63;;;;;;;26.93;54.36;100436.30;1790231;78;21152;-80
2021/08/16 07:20:41;;;;;;;11.73;8.93;;;;;;;27.06;53.95;100432.16;1723330;81;21122;-79
2021/08/16 07:23:08;;;;;;;10.90;8.73;;;;;;;27.19;53.08;100436.86;1723516;81;21059;-79
2021/08/16 07:25:35;;;;;;;9.80;8.30;;;;;;;27.30;52.10;100441.30;1724431;80;21056;-80
2021/08/16 07:28:02;;;;;;;10.70;7.60;;;;;;;27.42;51.40;100440.86;1723100;81;21488;-81
2021/08/16 07:30:29;;;;;;;10.13;7.60;;;;;;;27.51;51.39;100441.33;1721328;80;21082;-79
2021/08/16 07:32:56;;;;;;;10.07;7.70;;;;;;;27.60;50.46;100440.46;1722259;81;21217;-85
2021/08/16 07:35:23;;;;;;;10.60;8.03;;;;;;;27.68;49.66;100439.39;1780890;78;21054;-80
2021/08/16 07:37:50;;;;;;;10.03;7.17;;;;;;;27.77;49.23;100437.17;1793354;78;21093;-76
2021/08/16 07:40:17;;;;;;;9.77;7.20;;;;;;;27.85;48.93;100437.23;1788982;79;21067;-75
2021/08/16 07:42:44;;;;;;;11.30;7.33;;;;;;;27.91;48.55;100437.89;1790070;78;22163;-76
2021/08/16 07:45:12;;;;;;;9.77;6.67;;;;;;;28.00;48.76;100434.81;1788961;78;21487;-79
2021/08/16 07:47:39;;;;;;;8.67;6.30;;;;;;;28.10;47.11;100434.70;1788400;78;21039;-83
2021/08/16 07:50:10;;;;;;;9.97;6.93;;;;;;;28.17;47.21;100432.05;1783635;78;21098;-83
2021/08/16 07:52:40;;;;;;;9.53;7.33;;;;;;;28.26;47.21;100436.61;1783585;78;21092;-79
2021/08/16 07:55:07;;;;;;;13.70;7.57;;;;;;;28.36;46.84;100436.48;1787654;78;22187;-79
2021/08/16 07:57:35;;;;;;;9.73;7.40;;;;;;;28.43;47.23;100429.70;1787148;78;21019;-78
2021/08/16 08:00:03;;;;;;;11.30;7.37;;;;;;;28.48;47.39;100427.39;1787025;78;21573;-78
2021/08/16 08:02:50;;;;;;;9.43;7.00;;;;;;;28.52;47.02;100427.41;1782203;78;21022;-79
2021/08/16 08:05:20;;;;;;;10.50;6.87;;;;;;;28.61;46.25;100432.59;1790991;78;21529;-80
2021/08/16 08:07:47;;;;;;;10.60;6.50;;;;;;;28.69;46.48;100433.63;1779705;78;20921;-78
2021/08/16 08:10:17;;;;;;;8.93;6.13;;;;;;;28.80;46.54;100423.28;1789348;79;21549;-80
2021/08/16 08:12:46;;;;;;;8.23;6.10;;;;;;;28.90;44.75;100431.58;1785284;78;21090;-75
2021/08/16 08:15:13;;;;;;;10.57;6.47;;;;;;;28.99;43.91;100426.53;1795598;78;21119;-76
2021/08/16 08:17:40;;;;;;;9.77;6.20;;;;;;;29.09;44.05;100429.72;1796095;78;21046;-77
2021/08/16 08:20:09;;;;;;;10.77;6.30;;;;;;;29.16;44.34;100426.44;1786097;78;21526;-81
2021/08/16 08:22:36;;;;;;;11.73;6.33;;;;;;;29.24;43.05;100423.11;1780950;78;21052;-71
2021/08/16 08:25:05;;;;;;;10.73;6.40;;;;;;;29.32;42.70;100423.92;1787733;78;20994;-73
2021/08/16 08:27:33;;;;;;;9.10;6.23;;;;;;;29.38;42.08;100423.16;1792374;79;21008;-72
2021/08/16 08:30:00;;;;;;;9.50;6.17;;;;;;;29.44;42.14;100420.82;1783185;78;21494;-72
2021/08/16 08:32:30;;;;;;;10.10;6.47;;;;;;;29.52;42.59;100423.81;1784817;78;21026;-72
2021/08/16 08:34:57;;;;;;;14.77;6.77;;;;;;;29.59;42.87;100418.31;1786001;78;20987;-71
2021/08/16 08:37:23;;;;;;;12.87;7.40;;;;;;;29.70;43.02;100420.33;1782682;78;21101;-71
2021/08/16 08:39:50;;;;;;;13.43;7.30;;;;;;;29.77;42.97;100421.12;1783887;79;21070;-70
2021/08/16 08:42:16;;;;;;;17.43;7.77;;;;;;;29.85;42.65;100421.94;1785001;78;21112;-71
2021/08/16 08:44:44;;;;;;;11.40;6.93;;;;;;;29.94;42.20;100423.69;1785283;78;21621;-71
2021/08/16 08:47:12;;;;;;;11.27;7.17;;;;;;;30.01;41.47;100413.27;1789339;78;21007;-71
2021/08/16 08:49:40;;;;;;;11.33;7.13;;;;;;;30.09;41.69;100423.13;1778889;78;21093;-71
2021/08/16 08:52:08;;;;;;;10.93;7.40;;;;;;;30.19;42.31;100418.83;1786613;78;21051;-70
2021/08/16 08:54:36;;;;;;;9.73;6.90;;;;;;;30.26;42.46;100413.31;1794330;78;21135;-72
2021/08/16 08:57:05;;;;;;;9.83;7.78;;;;;;;30.32;43.31;100417.24;1788246;78;21905;-71
2021/08/16 08:59:32;;;;;;;12.07;7.95;;;;;;;30.35;43.08;100416.45;1794528;78;21055;-71
2021/08/16 09:01:59;;;;;;;13.75;7.78;;;;;;;30.44;42.87;100419.59;1773865;78;21165;-72
2021/08/16 09:04:26;;;;;;;11.63;7.17;;;;;;;30.53;42.20;100413.66;1792213;78;21007;-72
2021/08/16 09:06:53;;;;;;;11.97;7.40;;;;;;;30.55;41.66;100412.09;1788779;78;21479;-71
2021/08/16 09:09:20;;;;;;;10.00;6.70;;;;;;;30.57;41.91;100417.22;1785358;78;21043;-74
2021/08/16 09:11:51;;;;;;;13.50;7.17;;;;;;;30.57;40.98;100415.25;1773629;78;20988;-75
2021/08/16 09:14:17;;;;;;;;;;;;;;;30.63;41.14;100416.20;1790753;78;21223;-76
2021/08/16 09:16:46;;;;;;;11.93;7.03;;;;;;;30.72;40.69;100416.58;1743538;81;20223;-77
2021/08/16 09:19:19;;;;;;;10.50;6.80;;;;;;;30.79;40.32;100405.55;1752536;80;21916;-75
2021/08/16 09:21:59;;;;;;;11.88;6.03;;;;;;;30.86;40.53;100407.51;1756116;80;20980;-73
2021/08/16 09:24:29;;;;;;;8.53;6.20;;;;;;;30.87;40.08;100400.23;1744551;80;20999;-74
2021/08/16 09:27:09;;;;;;;9.10;5.87;;;;;;;30.95;39.70;100398.22;1748338;80;21656;-72
2021/08/16 09:29:36;;;;;;;10.30;6.00;;;;;;;31.03;39.67;100396.42;1741181;80;20996;-72
2021/08/16 09:32:04;;;;;;;9.90;5.62;;;;;;;31.11;39.05;100393.63;1733039;81;21845;-72
2021/08/16 09:34:37;;;;;;;9.35;5.92;;;;;;;31.18;39.20;100393.59;1742888;80;21090;-74
2021/08/16 09:37:17;;;;;;;6.85;5.17;;;;;;;31.24;38.54;100383.71;1746575;80;22199;-75
2021/08/16 09:39:44;;;;;;;7.37;5.40;;;;;;;31.27;38.51;100394.73;1744087;80;21582;-72
2021/08/16 09:42:13;;;;;;;7.22;5.35;;;;;;;31.33;37.79;100393.75;1727923;81;21576;-73
2021/08/16 09:44:49;;;;;;;7.95;5.40;;;;;;;31.32;37.66;100383.84;1719285;81;21174;-72
2021/08/16 09:47:15;;;;;;;6.17;5.25;;;;;;;31.33;37.90;100382.71;1731280;80;21642;-73
2021/08/16 09:49:43;;;;;;;8.15;5.55;;;;;;;31.35;37.88;100380.91;1718786;81;21079;-72
2021/08/16 09:52:11;;;;;;;8.15;5.87;;;;;;;31.40;37.67;100374.38;1731210;81;20972;-73
2021/08/16 09:54:39;;;;;;;8.50;5.58;;;;;;;31.46;37.30;100372.77;1722107;82;20949;-74
2021/08/16 09:57:07;;;;;;;9.70;5.92;;;;;;;31.54;37.43;100364.62;1729372;80;21692;-75
2021/08/16 09:59:34;;;;;;;7.00;5.60;;;;;;;31.62;36.83;100370.09;1795280;79;20987;-73
2021/08/16 10:02:02;;;;;;;7.28;5.30;;;;;;;31.72;36.89;100367.84;1791819;78;21024;-72
2021/08/16 10:04:30;;;;;;;5.72;4.95;;;;;;;31.80;36.92;100361.09;1797286;78;20957;-72
2021/08/16 10:06:58;;;;;;;7.65;5.60;;;;;;;31.81;37.51;100362.65;1789911;78;21044;-73
2021/08/16 10:09:26;;;;;;;6.85;4.90;;;;;;;31.89;37.60;100353.16;1785599;79;21497;-74
2021/08/16 10:11:54;;;;;;;8.68;5.62;;;;;;;32.04;36.87;100360.70;1787414;79;20998;-73
2021/08/16 10:14:28;;;;;;;7.62;4.85;;;;;;;32.16;36.94;100352.52;1778700;78;21039;-74
2021/08/16 10:16:55;;;;;;;8.53;4.85;;;;;;;32.26;36.81;100350.24;1785598;78;21043;-72
2021/08/16 10:19:34;;;;;;;5.92;4.47;;;;;;;32.36;35.61;100346.58;1689686;81;20988;-71
2021/08/16 10:22:01;;;;;;;5.65;5.05;;;;;;;32.43;34.54;100346.53;1735682;81;21181;-71
2021/08/16 10:24:29;;;;;;;7.05;5.37;;;;;;;32.53;34.47;100339.92;1721273;81;21091;-71
2021/08/16 10:27:11;;;;;;;7.08;5.15;;;;;;;32.59;34.64;100342.42;1739195;80;21519;-74
2021/08/16 10:29:40;;;;;;;6.03;4.65;;;;;;;32.58;34.17;100338.09;1735673;80;21015;-73
2021/08/16 10:32:18;;;;;;;7.47;5.12;;;;;;;32.63;33.57;100334.86;1752170;80;21075;-72
2021/08/16 10:34:44;;;;;;;7.37;5.37;;;;;;;32.67;33.47;100336.38;1725467;80;21153;-73
2021/08/16 10:37:15;;;;;;;5.72;5.00;;;;;;;32.72;33.28;100331.00;1728832;80;21597;-74
2021/08/16 10:39:49;;;;;;;6.55;4.80;;;;;;;32.76;33.74;100335.88;1731430;81;21505;-73
2021/08/16 10:42:18;;;;;;;6.87;5.03;;;;;;;32.80;33.54;100332.47;1718767;82;21054;-73
2021/08/16 10:44:53;;;;;;;6.80;4.80;;;;;;;32.84;33.10;100327.70;1751414;80;21058;-75
2021/08/16 10:47:29;;;;;;;9.53;5.08;;;;;;;32.91;32.59;100329.58;1752476;80;21498;-75
2021/08/16 10:50:13;;;;;;;8.93;5.30;;;;;;;32.92;32.53;100320.86;1743658;81;21206;-74
2021/08/16 10:52:41;;;;;;;7.62;5.65;;;;;;;32.98;32.75;100318.45;1748263;80;21067;-73
2021/08/16 10:55:17;;;;;;;8.48;5.05;;;;;;;32.99;33.01;100318.63;1747706;81;21055;-72
2021/08/16 10:57:44;;;;;;;7.87;4.90;;;;;;;32.96;32.14;100315.88;1747792;80;21042;-72
2021/08/16 11:00:13;;;;;;;6.83;4.70;;;;;;;32.87;32.48;100313.03;1742145;80;21152;-73
2021/08/16 11:02:43;;;;;;;6.00;4.72;;;;;;;32.82;32.42;100310.72;1739734;80;20992;-73
2021/08/16 11:05:14;;;;;;;7.42;4.90;;;;;;;32.72;32.49;100309.48;1741765;81;21229;-73
2021/08/16 11:07:42;;;;;;;6.40;4.20;;;;;;;32.59;32.72;100311.40;1754173;80;21598;-72
2021/08/16 11:10:10;;;;;;;6.00;4.58;;;;;;;32.45;32.95;100315.13;1746656;80;21134;-73
2021/08/16 11:12:43;;;;;;;8.15;4.35;;;;;;;32.37;32.69;100308.06;1740530;81;21117;-74
2021/08/16 11:15:21;;;;;;;8.05;4.60;;;;;;;32.36;32.92;100307.88;1740304;80;20933;-74
2021/08/16 11:17:48;;;;;;;6.90;4.75;;;;;;;32.41;33.36;100308.83;1753321;80;21020;-71